PRIVATE WETTERSTATION BILLIGHEIM-ALLFELD                       ZURCK
Wetterdaten: Samstag, 07.05.2016
Datum Zeit Temp. A. Temp. A. min Temp. A. max Feuchte A. Luftdruck Regen Wind Richtung Richtung Sonnenschein ET Solar Taupunkt Windchill Windben Empfang
07.05.2016 00:00 13,8 C 13,8 C 14,9 C 69 % 1011,4 hPa 0,0 l/m 0,0 km/h (0 Bft) O-NO 67 0 min 0,025 mm 0 W/m 8,2 C 13,8 C 4,8 km/h (1 Bft) 100 %
07.05.2016 00:10 13,0 C 13,0 C 13,7 C 72 % 1011,5 hPa 0,0 l/m 0,0 km/h (0 Bft) O-NO 67 0 min 0,000 mm 0 W/m 8,1 C 13,0 C 6,4 km/h (2 Bft) 100 %
07.05.2016 00:20 12,4 C 12,4 C 12,9 C 74 % 1011,5 hPa 0,0 l/m 0,0 km/h (0 Bft) NO 45 0 min 0,000 mm 0 W/m 7,9 C 12,4 C 1,6 km/h (1 Bft) 96 %
07.05.2016 00:30 11,9 C 11,9 C 12,4 C 77 % 1011,6 hPa 0,0 l/m 0,0 km/h (0 Bft) N-NO 22 0 min 0,000 mm 0 W/m 8,0 C 11,9 C 4,8 km/h (1 Bft) 100 %
07.05.2016 00:40 11,3 C 11,3 C 11,9 C 79 % 1011,7 hPa 0,0 l/m 0,0 km/h (0 Bft) N-NW 337 0 min 0,000 mm 0 W/m 7,8 C 11,3 C 4,8 km/h (1 Bft) 100 %
07.05.2016 00:50 10,9 C 10,9 C 11,3 C 80 % 1011,7 hPa 0,0 l/m 0,0 km/h (0 Bft) N-NW 337 0 min 0,000 mm 0 W/m 7,6 C 10,9 C 4,8 km/h (1 Bft) 100 %
07.05.2016 01:00 10,7 C 10,7 C 10,9 C 81 % 1011,8 hPa 0,0 l/m 0,0 km/h (0 Bft) N 360 0 min 0,025 mm 0 W/m 7,6 C 10,7 C 6,4 km/h (2 Bft) 100 %
07.05.2016 01:10 10,5 C 10,5 C 10,7 C 81 % 1011,9 hPa 0,0 l/m 0,0 km/h (0 Bft) N 360 0 min 0,000 mm 0 W/m 7,4 C 10,5 C 4,8 km/h (1 Bft) 100 %
07.05.2016 01:20 10,3 C 10,3 C 10,5 C 82 % 1011,8 hPa 0,0 l/m 0,0 km/h (0 Bft) N 360 0 min 0,000 mm 0 W/m 7,4 C 10,3 C 4,8 km/h (1 Bft) 93 %
07.05.2016 01:30 10,1 C 10,1 C 10,3 C 83 % 1011,8 hPa 0,0 l/m 0,0 km/h (0 Bft) NW 315 0 min 0,000 mm 0 W/m 7,3 C 10,1 C 6,4 km/h (2 Bft) 97 %
07.05.2016 01:40 9,8 C 9,8 C 10,1 C 83 % 1011,7 hPa 0,0 l/m 0,0 km/h (0 Bft) NW 315 0 min 0,000 mm 0 W/m 7,1 C 9,8 C 4,8 km/h (1 Bft) 99 %
07.05.2016 01:50 10,1 C 9,8 C 10,1 C 81 % 1011,6 hPa 0,0 l/m 1,6 km/h (1 Bft) N 360 0 min 0,000 mm 0 W/m 7,0 C 10,1 C 8,0 km/h (2 Bft) 100 %
07.05.2016 02:00 10,1 C 10,1 C 10,1 C 80 % 1011,6 hPa 0,0 l/m 1,6 km/h (1 Bft) NW 315 0 min 0,025 mm 0 W/m 6,8 C 10,1 C 6,4 km/h (2 Bft) 100 %
07.05.2016 02:10 10,2 C 10,1 C 10,2 C 78 % 1011,5 hPa 0,0 l/m 1,6 km/h (1 Bft) NW 315 0 min 0,000 mm 0 W/m 6,5 C 10,2 C 6,4 km/h (2 Bft) 100 %
07.05.2016 02:20 10,3 C 10,2 C 10,3 C 77 % 1011,5 hPa 0,0 l/m 0,0 km/h (0 Bft) N-NW 337 0 min 0,000 mm 0 W/m 6,4 C 10,3 C 4,8 km/h (1 Bft) 100 %
07.05.2016 02:30 10,3 C 10,3 C 10,3 C 77 % 1011,4 hPa 0,0 l/m 1,6 km/h (1 Bft) N-NW 337 0 min 0,000 mm 0 W/m 6,4 C 10,3 C 4,8 km/h (1 Bft) 100 %
07.05.2016 02:40 10,3 C 10,3 C 10,3 C 77 % 1011,4 hPa 0,0 l/m 3,2 km/h (1 Bft) N-NW 337 0 min 0,000 mm 0 W/m 6,4 C 10,3 C 6,4 km/h (2 Bft) 99 %
07.05.2016 02:50 10,0 C 10,0 C 10,3 C 78 % 1011,4 hPa 0,0 l/m 3,2 km/h (1 Bft) N-NW 337 0 min 0,000 mm 0 W/m 6,3 C 10,0 C 6,4 km/h (2 Bft) 100 %
07.05.2016 03:00 9,8 C 9,8 C 10,0 C 79 % 1011,3 hPa 0,0 l/m 1,6 km/h (1 Bft) N-NW 337 0 min 0,025 mm 0 W/m 6,3 C 9,8 C 6,4 km/h (2 Bft) 100 %
07.05.2016 03:10 9,6 C 9,6 C 9,8 C 79 % 1011,3 hPa 0,0 l/m 1,6 km/h (1 Bft) N-NW 337 0 min 0,000 mm 0 W/m 6,1 C 9,6 C 6,4 km/h (2 Bft) 100 %
07.05.2016 03:20 9,6 C 9,5 C 9,6 C 79 % 1011,3 hPa 0,0 l/m 1,6 km/h (1 Bft) N-NW 337 0 min 0,000 mm 0 W/m 6,1 C 9,6 C 6,4 km/h (2 Bft) 100 %
07.05.2016 03:30 9,5 C 9,5 C 9,6 C 79 % 1011,2 hPa 0,0 l/m 0,0 km/h (0 Bft) N-NW 337 0 min 0,000 mm 0 W/m 6,0 C 9,5 C 3,2 km/h (1 Bft) 100 %
07.05.2016 03:40 9,4 C 9,4 C 9,6 C 80 % 1011,2 hPa 0,0 l/m 4,8 km/h (1 Bft) N-NW 337 0 min 0,000 mm 0 W/m 6,1 C 9,4 C 8,0 km/h (2 Bft) 100 %
07.05.2016 03:50 9,1 C 9,1 C 9,4 C 80 % 1011,2 hPa 0,0 l/m 3,2 km/h (1 Bft) N-NW 337 0 min 0,000 mm 0 W/m 5,8 C 9,1 C 8,0 km/h (2 Bft) 100 %
07.05.2016 04:00 9,1 C 9,0 C 9,1 C 80 % 1011,2 hPa 0,0 l/m 0,0 km/h (0 Bft) N-NW 337 0 min 0,025 mm 0 W/m 5,8 C 9,1 C 6,4 km/h (2 Bft) 100 %
07.05.2016 04:10 9,1 C 9,0 C 9,1 C 80 % 1011,1 hPa 0,0 l/m 1,6 km/h (1 Bft) N 360 0 min 0,000 mm 0 W/m 5,8 C 9,1 C 6,4 km/h (2 Bft) 100 %
07.05.2016 04:20 9,2 C 9,1 C 9,2 C 79 % 1011,0 hPa 0,0 l/m 0,0 km/h (0 Bft) N 360 0 min 0,000 mm 0 W/m 5,8 C 9,2 C 4,8 km/h (1 Bft) 91 %
07.05.2016 04:30 9,1 C 9,1 C 9,3 C 80 % 1011,0 hPa 0,0 l/m 0,0 km/h (0 Bft) N-NW 337 0 min 0,000 mm 0 W/m 5,8 C 9,1 C 4,8 km/h (1 Bft) 100 %
07.05.2016 04:40 8,9 C 8,9 C 9,1 C 81 % 1011,0 hPa 0,0 l/m 1,6 km/h (1 Bft) N 360 0 min 0,000 mm 0 W/m 5,8 C 8,9 C 4,8 km/h (1 Bft) 100 %
07.05.2016 04:50 8,7 C 8,7 C 8,9 C 82 % 1011,1 hPa 0,0 l/m 1,6 km/h (1 Bft) N 360 0 min 0,000 mm 0 W/m 5,8 C 8,7 C 4,8 km/h (1 Bft) 100 %
07.05.2016 05:00 8,5 C 8,5 C 8,7 C 82 % 1011,1 hPa 0,0 l/m 0,0 km/h (0 Bft) N 360 0 min 0,025 mm 0 W/m 5,6 C 8,5 C 4,8 km/h (1 Bft) 100 %
07.05.2016 05:10 8,5 C 8,5 C 8,5 C 83 % 1011,1 hPa 0,0 l/m 0,0 km/h (0 Bft) N 360 0 min 0,000 mm 0 W/m 5,8 C 8,5 C 3,2 km/h (1 Bft) 100 %
07.05.2016 05:20 8,4 C 8,4 C 8,5 C 83 % 1011,0 hPa 0,0 l/m 0,0 km/h (0 Bft) N 360 0 min 0,000 mm 0 W/m 5,7 C 8,4 C 4,8 km/h (1 Bft) 100 %
07.05.2016 05:30 8,4 C 8,4 C 8,4 C 83 % 1011,1 hPa 0,0 l/m 0,0 km/h (0 Bft) N 360 0 min 0,000 mm 0 W/m 5,7 C 8,4 C 4,8 km/h (1 Bft) 100 %
07.05.2016 05:40 8,3 C 8,3 C 8,4 C 83 % 1011,1 hPa 0,0 l/m 0,0 km/h (0 Bft) N 360 0 min 0,000 mm 0 W/m 5,6 C 8,3 C 4,8 km/h (1 Bft) 100 %
07.05.2016 05:50 8,2 C 8,2 C 8,3 C 84 % 1011,1 hPa 0,0 l/m 0,0 km/h (0 Bft) N 360 0 min 0,000 mm 0 W/m 5,7 C 8,2 C 4,8 km/h (1 Bft) 100 %
07.05.2016 06:00 8,1 C 8,1 C 8,2 C 84 % 1011,1 hPa 0,0 l/m 1,6 km/h (1 Bft) N-NW 337 0 min 0,000 mm 5 W/m 5,6 C 8,1 C 6,4 km/h (2 Bft) 100 %
07.05.2016 06:10 8,1 C 8,1 C 8,1 C 85 % 1011,1 hPa 0,0 l/m 1,6 km/h (1 Bft) N-NW 337 0 min 0,000 mm 11 W/m 5,7 C 8,1 C 6,4 km/h (2 Bft) 100 %
07.05.2016 06:20 8,1 C 8,1 C 8,1 C 85 % 1011,1 hPa 0,0 l/m 3,2 km/h (1 Bft) N-NW 337 0 min 0,000 mm 14 W/m 5,7 C 8,1 C 8,0 km/h (2 Bft) 100 %
07.05.2016 06:30 8,1 C 8,1 C 8,1 C 85 % 1011,1 hPa 0,0 l/m 3,2 km/h (1 Bft) N-NW 337 0 min 0,000 mm 18 W/m 5,7 C 8,1 C 6,4 km/h (2 Bft) 100 %
07.05.2016 06:40 8,1 C 8,1 C 8,1 C 85 % 1011,2 hPa 0,0 l/m 1,6 km/h (1 Bft) N-NW 337 0 min 0,000 mm 21 W/m 5,7 C 8,1 C 4,8 km/h (1 Bft) 100 %
07.05.2016 06:50 8,2 C 8,1 C 8,2 C 86 % 1011,1 hPa 0,0 l/m 1,6 km/h (1 Bft) N-NW 337 0 min 0,000 mm 23 W/m 6,0 C 8,2 C 6,4 km/h (2 Bft) 90 %
07.05.2016 07:00 8,3 C 8,2 C 8,3 C 86 % 1011,1 hPa 0,0 l/m 1,6 km/h (1 Bft) N-NW 337 0 min 0,000 mm 26 W/m 6,1 C 8,3 C 6,4 km/h (2 Bft) 100 %
07.05.2016 07:10 8,4 C 8,3 C 8,4 C 86 % 1011,1 hPa 0,0 l/m 1,6 km/h (1 Bft) N-NW 337 0 min 0,000 mm 28 W/m 6,2 C 8,4 C 6,4 km/h (2 Bft) 100 %
07.05.2016 07:20 8,8 C 8,4 C 8,8 C 86 % 1011,1 hPa 0,0 l/m 0,0 km/h (0 Bft) W-NW 292 0 min 0,000 mm 32 W/m 6,6 C 8,8 C 3,2 km/h (1 Bft) 100 %
07.05.2016 07:30 9,2 C 8,8 C 9,2 C 86 % 1011,2 hPa 0,0 l/m 0,0 km/h (0 Bft) W-NW 292 0 min 0,000 mm 37 W/m 7,0 C 9,2 C 1,6 km/h (1 Bft) 100 %
07.05.2016 07:40 9,5 C 9,2 C 9,5 C 85 % 1011,3 hPa 0,0 l/m 0,0 km/h (0 Bft) W-NW 292 0 min 0,000 mm 35 W/m 7,1 C 9,5 C 1,6 km/h (1 Bft) 100 %
07.05.2016 07:50 9,8 C 9,5 C 9,8 C 85 % 1011,4 hPa 0,0 l/m 0,0 km/h (0 Bft) NW 315 0 min 0,000 mm 39 W/m 7,4 C 9,8 C 4,8 km/h (1 Bft) 100 %
07.05.2016 08:00 10,2 C 9,8 C 10,2 C 84 % 1011,5 hPa 0,0 l/m 0,0 km/h (0 Bft) NW 315 0 min 0,025 mm 42 W/m 7,6 C 10,2 C 4,8 km/h (1 Bft) 100 %
07.05.2016 08:10 10,7 C 10,2 C 10,7 C 83 % 1011,5 hPa 0,0 l/m 0,0 km/h (0 Bft) NW 315 0 min 0,000 mm 51 W/m 7,9 C 10,7 C 1,6 km/h (1 Bft) 100 %
07.05.2016 08:20 11,2 C 10,7 C 11,2 C 81 % 1011,6 hPa 0,0 l/m 0,0 km/h (0 Bft) N 360 0 min 0,000 mm 105 W/m 8,1 C 11,2 C 6,4 km/h (2 Bft) 100 %
07.05.2016 08:30 11,9 C 11,2 C 11,9 C 79 % 1011,5 hPa 0,0 l/m 0,0 km/h (0 Bft) N 360 10 min 0,000 mm 360 W/m 8,4 C 11,9 C 1,6 km/h (1 Bft) 100 %
07.05.2016 08:40 13,1 C 11,9 C 13,1 C 76 % 1011,5 hPa 0,0 l/m 0,0 km/h (0 Bft) N 360 10 min 0,000 mm 385 W/m 9,0 C 13,1 C 3,2 km/h (1 Bft) 100 %
07.05.2016 08:50 14,2 C 13,1 C 14,2 C 73 % 1011,5 hPa 0,0 l/m 0,0 km/h (0 Bft) NO 45 10 min 0,000 mm 403 W/m 9,4 C 14,2 C 4,8 km/h (1 Bft) 100 %
07.05.2016 09:10 15,9 C 13,1 C 15,9 C 67 % 1011,4 hPa 0,0 l/m 1,4 km/h (1 Bft) N 5 20 min 0,104 mm 457 W/m 9,8 C 15,9 C 9,7 km/h (2 Bft) 100 %
07.05.2016 09:20 16,4 C 15,9 C 16,4 C 64 % 1011,4 hPa 0,0 l/m 0,8 km/h (0 Bft) N-NW 346 10 min 0,000 mm 482 W/m 9,6 C 16,4 C 8,0 km/h (2 Bft) 99 %
07.05.2016 09:30 16,9 C 16,4 C 16,9 C 61 % 1011,3 hPa 0,0 l/m 0,3 km/h (0 Bft) N 5 10 min 0,000 mm 510 W/m 9,3 C 16,9 C 9,7 km/h (2 Bft) 100 %
07.05.2016 09:40 17,4 C 16,9 C 17,4 C 63 % 1011,2 hPa 0,0 l/m 0,0 km/h (0 Bft) S-SO 157 10 min 0,000 mm 534 W/m 10,3 C 17,4 C 1,6 km/h (1 Bft) 100 %
07.05.2016 09:50 18,0 C 17,4 C 18,0 C 61 % 1011,3 hPa 0,0 l/m 0,0 km/h (0 Bft) NO 37 10 min 0,000 mm 559 W/m 10,4 C 18,0 C 1,6 km/h (1 Bft) 100 %
07.05.2016 10:00 18,3 C 18,0 C 18,3 C 59 % 1011,4 hPa 0,0 l/m 0,2 km/h (0 Bft) O 86 10 min 0,280 mm 582 W/m 10,1 C 18,3 C 4,8 km/h (1 Bft) 100 %
07.05.2016 10:10 18,4 C 18,3 C 18,4 C 59 % 1011,4 hPa 0,0 l/m 0,1 km/h (0 Bft) NO 34 10 min 0,000 mm 608 W/m 10,2 C 18,4 C 4,8 km/h (1 Bft) 100 %
07.05.2016 10:20 18,8 C 18,4 C 18,8 C 62 % 1011,3 hPa 0,0 l/m 0,1 km/h (0 Bft) N-NO 26 10 min 0,000 mm 629 W/m 11,4 C 18,8 C 3,2 km/h (1 Bft) 100 %
07.05.2016 10:30 19,2 C 18,8 C 19,2 C 59 % 1011,3 hPa 0,0 l/m 0,8 km/h (0 Bft) N 9 10 min 0,000 mm 652 W/m 11,0 C 19,2 C 11,3 km/h (2 Bft) 100 %
07.05.2016 10:40 19,4 C 19,2 C 19,4 C 56 % 1011,2 hPa 0,0 l/m 1,7 km/h (1 Bft) SO 136 10 min 0,000 mm 673 W/m 10,4 C 19,4 C 8,0 km/h (2 Bft) 99 %
07.05.2016 10:50 19,6 C 19,4 C 19,6 C 57 % 1011,2 hPa 0,0 l/m 2,1 km/h (1 Bft) O-SO 113 10 min 0,000 mm 696 W/m 10,8 C 19,6 C 9,7 km/h (2 Bft) 100 %
07.05.2016 11:00 19,9 C 19,6 C 19,9 C 62 % 1011,2 hPa 0,0 l/m 0,3 km/h (0 Bft) O-NO 59 10 min 0,381 mm 712 W/m 12,4 C 19,9 C 6,4 km/h (2 Bft) 100 %
07.05.2016 11:10 20,3 C 19,9 C 20,3 C 55 % 1011,1 hPa 0,0 l/m 0,2 km/h (0 Bft) O-NO 62 10 min 0,000 mm 729 W/m 11,0 C 20,3 C 3,2 km/h (1 Bft) 100 %
07.05.2016 11:20 20,6 C 20,3 C 20,6 C 56 % 1011,1 hPa 0,0 l/m 1,3 km/h (1 Bft) N 355 10 min 0,000 mm 744 W/m 11,5 C 20,6 C 8,0 km/h (2 Bft) 100 %
07.05.2016 11:30 20,9 C 20,6 C 20,9 C 60 % 1011,0 hPa 0,0 l/m 0,0 km/h (0 Bft) NW 325 10 min 0,000 mm 759 W/m 12,8 C 20,9 C 1,6 km/h (1 Bft) 100 %
07.05.2016 11:40 21,1 C 20,9 C 21,1 C 56 % 1010,8 hPa 0,0 l/m 1,4 km/h (1 Bft) N 355 10 min 0,000 mm 770 W/m 12,0 C 21,1 C 16,1 km/h (3 Bft) 100 %
07.05.2016 11:50 21,3 C 21,1 C 21,3 C 56 % 1010,7 hPa 0,0 l/m 0,3 km/h (0 Bft) SO 136 10 min 0,000 mm 788 W/m 12,2 C 21,3 C 6,4 km/h (2 Bft) 100 %
07.05.2016 12:00 21,6 C 21,3 C 21,6 C 55 % 1010,7 hPa 0,0 l/m 0,8 km/h (0 Bft) O-NO 67 10 min 0,457 mm 795 W/m 12,2 C 21,6 C 8,0 km/h (2 Bft) 100 %
07.05.2016 12:10 21,6 C 21,6 C 21,6 C 58 % 1010,6 hPa 0,0 l/m 1,0 km/h (0 Bft) N-NW 333 10 min 0,000 mm 805 W/m 13,0 C 21,6 C 6,4 km/h (2 Bft) 100 %
07.05.2016 12:20 21,9 C 21,6 C 21,9 C 56 % 1010,4 hPa 0,0 l/m 1,2 km/h (1 Bft) NW 321 10 min 0,000 mm 810 W/m 12,7 C 21,9 C 8,0 km/h (2 Bft) 100 %
07.05.2016 12:30 22,2 C 21,9 C 22,2 C 55 % 1010,4 hPa 0,0 l/m 1,4 km/h (1 Bft) O 98 10 min 0,000 mm 844 W/m 12,7 C 22,2 C 11,3 km/h (2 Bft) 100 %
07.05.2016 12:40 22,6 C 22,2 C 22,6 C 54 % 1010,3 hPa 0,0 l/m 0,4 km/h (0 Bft) O-SO 123 10 min 0,000 mm 854 W/m 12,8 C 22,6 C 11,3 km/h (2 Bft) 100 %
07.05.2016 12:50 22,7 C 22,6 C 22,7 C 51 % 1010,2 hPa 0,0 l/m 2,1 km/h (1 Bft) N 5 10 min 0,000 mm 840 W/m 12,0 C 22,7 C 9,7 km/h (2 Bft) 100 %
07.05.2016 13:00 22,8 C 22,7 C 22,8 C 52 % 1010,2 hPa 0,0 l/m 1,9 km/h (1 Bft) O-NO 75 10 min 0,508 mm 831 W/m 12,4 C 22,8 C 11,3 km/h (2 Bft) 100 %
07.05.2016 13:10 23,2 C 22,8 C 23,2 C 54 % 1010,1 hPa 0,0 l/m 2,0 km/h (1 Bft) O-SO 120 10 min 0,000 mm 837 W/m 13,4 C 23,2 C 11,3 km/h (2 Bft) 100 %
07.05.2016 13:20 23,6 C 23,2 C 23,6 C 50 % 1009,9 hPa 0,0 l/m 1,3 km/h (1 Bft) O-SO 114 10 min 0,000 mm 833 W/m 12,6 C 23,6 C 20,9 km/h (4 Bft) 100 %
07.05.2016 13:30 23,6 C 23,6 C 23,7 C 50 % 1009,9 hPa 0,0 l/m 2,5 km/h (1 Bft) NW 311 10 min 0,000 mm 833 W/m 12,6 C 23,6 C 16,1 km/h (3 Bft) 100 %
07.05.2016 13:40 23,7 C 23,6 C 23,7 C 47 % 1009,8 hPa 0,0 l/m 3,2 km/h (1 Bft) O-NO 70 10 min 0,000 mm 824 W/m 11,7 C 23,7 C 19,3 km/h (3 Bft) 100 %
07.05.2016 13:50 23,8 C 23,7 C 23,8 C 47 % 1009,9 hPa 0,0 l/m 5,2 km/h (1 Bft) O-SO 111 10 min 0,000 mm 814 W/m 11,8 C 23,8 C 17,7 km/h (3 Bft) 100 %
07.05.2016 14:00 24,3 C 23,8 C 24,3 C 47 % 1009,6 hPa 0,0 l/m 1,5 km/h (1 Bft) N-NW 329 10 min 0,533 mm 803 W/m 12,3 C 24,3 C 9,7 km/h (2 Bft) 100 %
07.05.2016 14:10 24,5 C 24,3 C 24,6 C 45 % 1009,5 hPa 0,0 l/m 2,0 km/h (1 Bft) NW 320 10 min 0,000 mm 803 W/m 11,8 C 24,5 C 14,5 km/h (3 Bft) 100 %
07.05.2016 14:20 24,6 C 24,4 C 24,6 C 47 % 1009,6 hPa 0,0 l/m 2,1 km/h (1 Bft) SO 126 10 min 0,000 mm 800 W/m 12,5 C 24,6 C 11,3 km/h (2 Bft) 100 %
07.05.2016 14:30 24,4 C 24,4 C 24,6 C 48 % 1009,5 hPa 0,0 l/m 2,2 km/h (1 Bft) SO 144 10 min 0,000 mm 789 W/m 12,7 C 24,4 C 12,9 km/h (3 Bft) 100 %
07.05.2016 14:40 24,5 C 24,4 C 24,6 C 44 % 1009,4 hPa 0,0 l/m 1,8 km/h (1 Bft) O 88 10 min 0,000 mm 838 W/m 11,4 C 24,5 C 16,1 km/h (3 Bft) 100 %
07.05.2016 14:50 24,8 C 24,5 C 24,8 C 49 % 1009,4 hPa 0,0 l/m 1,9 km/h (1 Bft) O 96 10 min 0,000 mm 773 W/m 13,3 C 24,8 C 9,7 km/h (2 Bft) 100 %
07.05.2016 15:00 24,8 C 24,8 C 24,9 C 47 % 1009,2 hPa 0,0 l/m 4,3 km/h (1 Bft) N-NW 340 10 min 0,508 mm 744 W/m 12,7 C 24,8 C 16,1 km/h (3 Bft) 99 %
07.05.2016 15:10 24,9 C 24,8 C 24,9 C 44 % 1009,1 hPa 0,0 l/m 1,6 km/h (1 Bft) O-SO 114 10 min 0,000 mm 770 W/m 11,8 C 24,9 C 14,5 km/h (3 Bft) 100 %
07.05.2016 15:20 25,1 C 24,9 C 25,1 C 38 % 1009,1 hPa 0,0 l/m 0,9 km/h (0 Bft) N 5 10 min 0,000 mm 621 W/m 9,8 C 25,1 C 8,0 km/h (2 Bft) 100 %
07.05.2016 15:30 25,2 C 25,1 C 25,2 C 40 % 1009,0 hPa 0,0 l/m 3,8 km/h (1 Bft) O 88 0 min 0,000 mm 90 W/m 10,6 C 25,2 C 24,1 km/h (4 Bft) 100 %
07.05.2016 15:40 25,0 C 25,0 C 25,2 C 38 % 1008,9 hPa 0,0 l/m 3,8 km/h (1 Bft) O 90 0 min 0,000 mm 121 W/m 9,7 C 25,0 C 17,7 km/h (3 Bft) 100 %
07.05.2016 15:50 24,6 C 24,6 C 25,0 C 36 % 1008,9 hPa 0,0 l/m 4,2 km/h (1 Bft) O-SO 122 0 min 0,000 mm 142 W/m 8,5 C 24,6 C 17,7 km/h (3 Bft) 100 %
07.05.2016 16:00 24,8 C 24,6 C 24,8 C 37 % 1008,8 hPa 0,0 l/m 3,7 km/h (1 Bft) O 90 10 min 0,254 mm 366 W/m 9,1 C 24,8 C 16,1 km/h (3 Bft) 100 %
07.05.2016 16:10 24,7 C 24,7 C 24,9 C 36 % 1008,5 hPa 0,0 l/m 7,5 km/h (2 Bft) O 101 10 min 0,000 mm 559 W/m 8,6 C 24,4 C 20,9 km/h (4 Bft) 100 %
07.05.2016 16:20 24,8 C 24,7 C 24,8 C 35 % 1008,4 hPa 0,0 l/m 4,2 km/h (1 Bft) O 98 0 min 0,000 mm 123 W/m 8,3 C 24,8 C 25,7 km/h (4 Bft) 100 %
07.05.2016 16:30 24,8 C 24,7 C 24,8 C 39 % 1008,4 hPa 0,0 l/m 6,1 km/h (2 Bft) SO 136 10 min 0,000 mm 272 W/m 9,9 C 24,8 C 22,5 km/h (4 Bft) 100 %
07.05.2016 16:40 24,7 C 24,7 C 24,8 C 42 % 1008,3 hPa 0,0 l/m 6,5 km/h (2 Bft) O-NO 78 0 min 0,000 mm 65 W/m 10,9 C 24,7 C 20,9 km/h (4 Bft) 100 %
07.05.2016 16:50 24,7 C 24,7 C 24,9 C 38 % 1008,3 hPa 0,0 l/m 8,2 km/h (2 Bft) O-SO 111 0 min 0,000 mm 56 W/m 9,4 C 24,2 C 30,6 km/h (5 Bft) 100 %
07.05.2016 17:00 24,4 C 24,4 C 24,7 C 37 % 1008,3 hPa 0,0 l/m 11,5 km/h (2 Bft) O 96 0 min 0,178 mm 37 W/m 8,8 C 23,2 C 30,6 km/h (5 Bft) 100 %
07.05.2016 17:10 24,4 C 24,3 C 24,4 C 35 % 1008,3 hPa 0,0 l/m 8,1 km/h (2 Bft) SO 140 0 min 0,000 mm 30 W/m 7,9 C 23,9 C 19,3 km/h (3 Bft) 100 %
07.05.2016 17:20 24,6 C 24,4 C 24,6 C 36 % 1008,2 hPa 0,0 l/m 7,2 km/h (2 Bft) S-SO 153 0 min 0,000 mm 30 W/m 8,5 C 24,4 C 29,0 km/h (5 Bft) 99 %
07.05.2016 17:30 24,7 C 24,6 C 24,7 C 37 % 1008,1 hPa 0,0 l/m 4,0 km/h (1 Bft) O 98 0 min 0,000 mm 35 W/m 9,0 C 24,7 C 19,3 km/h (3 Bft) 100 %
07.05.2016 17:40 24,4 C 24,4 C 24,7 C 36 % 1008,1 hPa 0,0 l/m 9,3 km/h (2 Bft) SO 133 0 min 0,000 mm 26 W/m 8,4 C 23,7 C 20,9 km/h (4 Bft) 100 %
07.05.2016 17:50 24,4 C 24,3 C 24,4 C 37 % 1008,1 hPa 0,0 l/m 4,9 km/h (1 Bft) O 90 0 min 0,000 mm 23 W/m 8,8 C 24,4 C 14,5 km/h (3 Bft) 100 %
07.05.2016 18:00 24,2 C 24,2 C 24,4 C 35 % 1008,1 hPa 0,0 l/m 9,5 km/h (2 Bft) O-SO 106 0 min 0,102 mm 25 W/m 7,8 C 23,4 C 20,9 km/h (4 Bft) 100 %
07.05.2016 18:10 24,2 C 24,2 C 24,2 C 35 % 1008,1 hPa 0,0 l/m 6,3 km/h (2 Bft) SO 126 0 min 0,000 mm 16 W/m 7,8 C 24,2 C 14,5 km/h (3 Bft) 100 %
07.05.2016 18:20 24,2 C 24,2 C 24,2 C 37 % 1007,9 hPa 0,0 l/m 6,3 km/h (2 Bft) SO 144 0 min 0,000 mm 11 W/m 8,6 C 24,2 C 24,1 km/h (4 Bft) 100 %
07.05.2016 18:30 24,1 C 24,1 C 24,2 C 39 % 1008,0 hPa 0,0 l/m 5,4 km/h (1 Bft) S-SW 194 0 min 0,000 mm 11 W/m 9,3 C 24,1 C 17,7 km/h (3 Bft) 100 %
07.05.2016 18:40 23,9 C 23,9 C 24,1 C 35 % 1008,1 hPa 0,0 l/m 8,7 km/h (2 Bft) O 97 0 min 0,000 mm 9 W/m 7,5 C 23,3 C 19,3 km/h (3 Bft) 100 %
07.05.2016 18:50 23,7 C 23,7 C 23,9 C 38 % 1007,9 hPa 0,0 l/m 7,9 km/h (2 Bft) S-SO 161 0 min 0,000 mm 0 W/m 8,5 C 23,3 C 20,9 km/h (4 Bft) 100 %
07.05.2016 19:00 23,5 C 23,5 C 23,7 C 35 % 1008,0 hPa 0,0 l/m 6,5 km/h (2 Bft) SO 134 0 min 0,076 mm 0 W/m 7,1 C 23,5 C 22,5 km/h (4 Bft) 99 %
07.05.2016 19:10 23,4 C 23,4 C 23,5 C 39 % 1007,9 hPa 0,0 l/m 5,2 km/h (1 Bft) S-SO 149 0 min 0,000 mm 0 W/m 8,6 C 23,4 C 19,3 km/h (3 Bft) 100 %
07.05.2016 19:20 23,2 C 23,2 C 23,4 C 40 % 1007,9 hPa 0,0 l/m 2,2 km/h (1 Bft) SO 137 0 min 0,000 mm 0 W/m 8,8 C 23,2 C 9,7 km/h (2 Bft) 100 %
07.05.2016 19:30 22,9 C 22,9 C 23,2 C 41 % 1008,0 hPa 0,0 l/m 1,5 km/h (1 Bft) O-SO 105 0 min 0,000 mm 0 W/m 8,9 C 22,9 C 11,3 km/h (2 Bft) 100 %
07.05.2016 19:40 22,6 C 22,6 C 22,9 C 43 % 1008,1 hPa 0,0 l/m 0,6 km/h (0 Bft) O 80 0 min 0,000 mm 0 W/m 9,4 C 22,6 C 9,7 km/h (2 Bft) 100 %
07.05.2016 19:50 22,3 C 22,3 C 22,6 C 42 % 1008,2 hPa 0,0 l/m 1,5 km/h (1 Bft) O 86 0 min 0,000 mm 0 W/m 8,8 C 22,3 C 9,7 km/h (2 Bft) 100 %
07.05.2016 20:00 22,1 C 22,1 C 22,3 C 43 % 1008,2 hPa 0,0 l/m 0,0 km/h (0 Bft) NO 49 0 min 0,025 mm 0 W/m 8,9 C 22,1 C 1,6 km/h (1 Bft) 100 %
07.05.2016 20:10 21,7 C 21,7 C 22,1 C 43 % 1008,2 hPa 0,0 l/m 0,0 km/h (0 Bft) NO 40 0 min 0,000 mm 21 W/m 8,6 C 21,7 C 1,6 km/h (1 Bft) 100 %
07.05.2016 20:20 21,4 C 21,4 C 21,7 C 44 % 1008,3 hPa 0,0 l/m 0,0 km/h (0 Bft) NO 38 0 min 0,000 mm 16 W/m 8,6 C 21,4 C 1,6 km/h (1 Bft) 100 %
07.05.2016 20:30 21,0 C 21,0 C 21,4 C 44 % 1008,4 hPa 0,0 l/m 0,0 km/h (0 Bft) O-NO 59 0 min 0,000 mm 0 W/m 8,3 C 21,0 C 1,6 km/h (1 Bft) 100 %
07.05.2016 20:40 20,6 C 20,6 C 21,0 C 44 % 1008,5 hPa 0,0 l/m 0,1 km/h (0 Bft) O 80 0 min 0,000 mm 0 W/m 7,9 C 20,6 C 3,2 km/h (1 Bft) 100 %
07.05.2016 20:50 20,2 C 20,2 C 20,6 C 44 % 1008,5 hPa 0,0 l/m 0,2 km/h (0 Bft) O-NO 76 0 min 0,000 mm 0 W/m 7,6 C 20,2 C 4,8 km/h (1 Bft) 100 %
07.05.2016 21:00 19,8 C 19,8 C 20,2 C 44 % 1008,6 hPa 0,0 l/m 0,3 km/h (0 Bft) O-SO 123 0 min 0,026 mm 0 W/m 7,2 C 19,8 C 6,4 km/h (2 Bft) 100 %
07.05.2016 21:10 19,6 C 19,6 C 19,8 C 45 % 1008,7 hPa 0,0 l/m 0,0 km/h (0 Bft) O 92 0 min 0,000 mm 0 W/m 7,3 C 19,6 C 1,6 km/h (1 Bft) 100 %
07.05.2016 21:20 19,2 C 19,2 C 19,6 C 47 % 1008,8 hPa 0,0 l/m 0,4 km/h (0 Bft) NO 50 0 min 0,000 mm 0 W/m 7,6 C 19,2 C 4,8 km/h (1 Bft) 100 %
07.05.2016 21:30 18,8 C 18,8 C 19,2 C 48 % 1008,9 hPa 0,0 l/m 0,2 km/h (0 Bft) NO 46 0 min 0,000 mm 0 W/m 7,6 C 18,8 C 8,0 km/h (2 Bft) 100 %
07.05.2016 21:40 18,4 C 18,4 C 18,8 C 48 % 1009,0 hPa 0,0 l/m 0,3 km/h (0 Bft) NO 51 0 min 0,000 mm 0 W/m 7,2 C 18,4 C 4,8 km/h (1 Bft) 100 %
07.05.2016 21:50 18,2 C 18,2 C 18,4 C 48 % 1009,1 hPa 0,0 l/m 0,3 km/h (0 Bft) N 360 0 min 0,000 mm 0 W/m 7,0 C 18,2 C 6,4 km/h (2 Bft) 100 %
07.05.2016 22:00 17,9 C 17,9 C 18,2 C 49 % 1009,2 hPa 0,0 l/m 0,2 km/h (0 Bft) NO 44 0 min 0,051 mm 0 W/m 7,0 C 17,9 C 3,2 km/h (1 Bft) 100 %
07.05.2016 22:10 17,7 C 17,7 C 17,9 C 48 % 1009,3 hPa 0,0 l/m 0,7 km/h (0 Bft) N-NO 12 0 min 0,000 mm 0 W/m 6,6 C 17,7 C 9,7 km/h (2 Bft) 100 %
07.05.2016 22:20 17,5 C 17,5 C 17,7 C 48 % 1009,3 hPa 0,0 l/m 0,6 km/h (0 Bft) O-NO 75 0 min 0,000 mm 0 W/m 6,4 C 17,5 C 6,4 km/h (2 Bft) 99 %
07.05.2016 22:30 17,4 C 17,3 C 17,5 C 48 % 1009,4 hPa 0,0 l/m 0,2 km/h (0 Bft) O-SO 117 0 min 0,000 mm 0 W/m 6,3 C 17,4 C 6,4 km/h (2 Bft) 100 %
07.05.2016 22:40 17,3 C 17,2 C 17,4 C 48 % 1009,6 hPa 0,0 l/m 0,5 km/h (0 Bft) N-NO 24 0 min 0,000 mm 0 W/m 6,2 C 17,3 C 4,8 km/h (1 Bft) 100 %
07.05.2016 22:50 17,1 C 17,1 C 17,3 C 48 % 1009,6 hPa 0,0 l/m 0,5 km/h (0 Bft) N-NO 16 0 min 0,000 mm 0 W/m 6,0 C 17,1 C 6,4 km/h (2 Bft) 100 %
07.05.2016 23:00 16,8 C 16,8 C 17,1 C 50 % 1009,6 hPa 0,0 l/m 0,2 km/h (0 Bft) N-NO 29 0 min 0,050 mm 0 W/m 6,3 C 16,8 C 6,4 km/h (2 Bft) 100 %
07.05.2016 23:10 16,4 C 16,4 C 16,8 C 51 % 1009,8 hPa 0,0 l/m 0,2 km/h (0 Bft) N-NO 13 0 min 0,000 mm 0 W/m 6,2 C 16,4 C 8,0 km/h (2 Bft) 100 %
07.05.2016 23:20 16,2 C 16,2 C 16,4 C 52 % 1009,9 hPa 0,0 l/m 0,3 km/h (0 Bft) O-NO 57 0 min 0,000 mm 0 W/m 6,3 C 16,2 C 3,2 km/h (1 Bft) 100 %
07.05.2016 23:30 15,9 C 15,9 C 16,2 C 52 % 1009,9 hPa 0,0 l/m 0,3 km/h (0 Bft) N-NO 28 0 min 0,000 mm 0 W/m 6,1 C 15,9 C 4,8 km/h (1 Bft) 100 %
07.05.2016 23:40 15,8 C 15,8 C 15,9 C 53 % 1009,9 hPa 0,0 l/m 0,7 km/h (0 Bft) N-NO 30 0 min 0,000 mm 0 W/m 6,2 C 15,8 C 6,4 km/h (2 Bft) 100 %
07.05.2016 23:50 15,7 C 15,7 C 15,8 C 54 % 1009,9 hPa 0,0 l/m 0,1 km/h (0 Bft) NO 43 0 min 0,000 mm 0 W/m 6,4 C 15,7 C 4,8 km/h (1 Bft) 99 %
_ Min-Zeit 06:00 06:00 06:10 16:20 18:20 - 00:00 - - - - - 06:00 06:00 00:20 06:50
Minimum _ 8,1 C 8,1 C 8,1 C 35 % 1007,9 hPa - 0,0 km/h (0 Bft) - - - - - 5,6 C 8,1 C 1,6 km/h (1 Bft) 90 %
_ Max-Zeit 15:30 15:30 15:30 06:50 01:10 00:00 17:00 - - 09:10 14:00 12:40 13:10 15:30 16:50 00:00
Maximum _ 25,2 C 25,1 C 25,2 C 86 % 1011,9 hPa 0,0 l/m 11,5 km/h
O (2 Bft)
- - 20 min 0,533 mm 854 W/m 13,4 C 25,2 C 30,6 km/h
SO (5 Bft)
100 %
Durchschnitt _ 17,1 C 16,9 C 17,2 C 60 % 1010,1 hPa #0,0 l/m 1,8 km/h (1 Bft) N-NW - #7:30 h #3,708 mm 403 W/m 8,5 C 17,1 C 9,1 km/h (2 Bft) 100 %
PRIVATE WETTERSTATION BILLIGHEIM-ALLFELD - www.neckar-odenwald-wetter.de - Holger Sonntag